sensor_id;sensor_type;location;lat;lon;timestamp;temperature;humidity
24478;DHT22;17860;50.846;5.714;2024-03-29T12:06:19;15.70;99.90
24478;DHT22;17860;50.846;5.714;2024-03-29T12:08:48;15.50;99.90
24478;DHT22;17860;50.846;5.714;2024-03-29T12:11:16;15.30;99.90
24478;DHT22;17860;50.846;5.714;2024-03-29T12:13:45;15.40;99.90
24478;DHT22;17860;50.846;5.714;2024-03-29T12:16:12;15.70;99.90
24478;DHT22;17860;50.846;5.714;2024-03-29T12:18:39;16.10;99.90
24478;DHT22;17860;50.846;5.714;2024-03-29T12:21:07;16.50;99.90
24478;DHT22;17860;50.846;5.714;2024-03-29T12:23:37;16.20;99.90
24478;DHT22;17860;50.846;5.714;2024-03-29T12:26:05;16.50;99.90
24478;DHT22;17860;50.846;5.714;2024-03-29T12:28:32;17.00;99.90
24478;DHT22;17860;50.846;5.714;2024-03-29T12:31:00;17.70;99.90
24478;DHT22;17860;50.846;5.714;2024-03-29T12:33:29;18.50;99.90
24478;DHT22;17860;50.846;5.714;2024-03-29T12:35:58;19.10;99.90
24478;DHT22;17860;50.846;5.714;2024-03-29T12:38:25;20.20;99.90
24478;DHT22;17860;50.846;5.714;2024-03-29T12:40:54;18.70;99.90
24478;DHT22;17860;50.846;5.714;2024-03-29T12:43:22;17.30;99.90
24478;DHT22;17860;50.846;5.714;2024-03-29T12:45:50;17.30;99.90
24478;DHT22;17860;50.846;5.714;2024-03-29T12:48:20;17.60;99.90
24478;DHT22;17860;50.846;5.714;2024-03-29T12:50:49;18.30;99.90
24478;DHT22;17860;50.846;5.714;2024-03-29T12:53:17;18.40;99.90
24478;DHT22;17860;50.846;5.714;2024-03-29T12:55:45;17.80;99.90
24478;DHT22;17860;50.846;5.714;2024-03-29T12:58:15;17.70;99.90
24478;DHT22;17860;50.846;5.714;2024-03-29T13:00:43;19.00;99.90
24478;DHT22;17860;50.846;5.714;2024-03-29T13:03:11;20.10;97.60
24478;DHT22;17860;50.846;5.714;2024-03-29T13:05:39;21.40;94.90
24478;DHT22;17860;50.846;5.714;2024-03-29T13:08:08;21.10;87.60
24478;DHT22;17860;50.846;5.714;2024-03-29T13:10:36;20.00;91.00
24478;DHT22;17860;50.846;5.714;2024-03-29T13:13:05;18.70;95.10
24478;DHT22;17860;50.846;5.714;2024-03-29T13:15:35;18.60;97.70
24478;DHT22;17860;50.846;5.714;2024-03-29T13:18:03;18.40;99.80
24478;DHT22;17860;50.846;5.714;2024-03-29T13:20:32;17.80;99.90
24478;DHT22;17860;50.846;5.714;2024-03-29T13:23:02;18.00;99.90
24478;DHT22;17860;50.846;5.714;2024-03-29T13:25:29;18.40;99.90
24478;DHT22;17860;50.846;5.714;2024-03-29T13:27:58;18.70;99.90
24478;DHT22;17860;50.846;5.714;2024-03-29T13:30:26;19.00;99.90
24478;DHT22;17860;50.846;5.714;2024-03-29T13:32:56;19.10;99.70
24478;DHT22;17860;50.846;5.714;2024-03-29T13:35:23;19.00;98.40
24478;DHT22;17860;50.846;5.714;2024-03-29T13:37:52;18.40;98.50
24478;DHT22;17860;50.846;5.714;2024-03-29T13:40:21;18.10;99.90
24478;DHT22;17860;50.846;5.714;2024-03-29T13:42:49;18.20;99.50
24478;DHT22;17860;50.846;5.714;2024-03-29T13:45:16;18.40;99.90
24478;DHT22;17860;50.846;5.714;2024-03-29T13:47:45;19.00;97.00
24478;DHT22;17860;50.846;5.714;2024-03-29T13:50:14;18.70;97.30
24478;DHT22;17860;50.846;5.714;2024-03-29T13:52:42;18.20;98.30
24478;DHT22;17860;50.846;5.714;2024-03-29T13:55:10;18.70;99.90
24478;DHT22;17860;50.846;5.714;2024-03-29T13:57:37;18.70;99.90
24478;DHT22;17860;50.846;5.714;2024-03-29T14:00:06;18.70;98.50
24478;DHT22;17860;50.846;5.714;2024-03-29T14:02:33;18.40;99.90
24478;DHT22;17860;50.846;5.714;2024-03-29T14:05:01;18.10;99.90
24478;DHT22;17860;50.846;5.714;2024-03-29T14:07:30;17.70;99.60
24478;DHT22;17860;50.846;5.714;2024-03-29T14:09:57;17.70;99.90
24478;DHT22;17860;50.846;5.714;2024-03-29T14:12:24;17.90;99.00
24478;DHT22;17860;50.846;5.714;2024-03-29T14:14:52;18.10;97.10
24478;DHT22;17860;50.846;5.714;2024-03-29T14:17:20;17.50;98.30
24478;DHT22;17860;50.846;5.714;2024-03-29T14:19:48;17.20;98.20
24478;DHT22;17860;50.846;5.714;2024-03-29T14:22:17;17.30;99.60
24478;DHT22;17860;50.846;5.714;2024-03-29T14:24:47;17.60;99.20
24478;DHT22;17860;50.846;5.714;2024-03-29T14:27:14;18.00;97.80
24478;DHT22;17860;50.846;5.714;2024-03-29T14:29:42;17.60;98.50
24478;DHT22;17860;50.846;5.714;2024-03-29T14:32:10;17.50;97.30
24478;DHT22;17860;50.846;5.714;2024-03-29T14:34:38;17.00;98.70
24478;DHT22;17860;50.846;5.714;2024-03-29T14:37:10;16.90;99.90
24478;DHT22;17860;50.846;5.714;2024-03-29T14:39:39;16.80;99.90
24478;DHT22;17860;50.846;5.714;2024-03-29T14:42:10;16.70;99.90
24478;DHT22;17860;50.846;5.714;2024-03-29T14:44:48;16.60;99.90
24478;DHT22;17860;50.846;5.714;2024-03-29T14:47:15;16.30;99.90
24478;DHT22;17860;50.846;5.714;2024-03-29T14:49:43;16.20;99.90
24478;DHT22;17860;50.846;5.714;2024-03-29T14:52:10;16.10;99.90
24478;DHT22;17860;50.846;5.714;2024-03-29T14:54:37;16.10;99.90
24478;DHT22;17860;50.846;5.714;2024-03-29T14:57:05;16.30;99.90
24478;DHT22;17860;50.846;5.714;2024-03-29T14:59:33;16.40;99.90
24478;DHT22;17860;50.846;5.714;2024-03-29T15:02:02;17.00;99.90
24478;DHT22;17860;50.846;5.714;2024-03-29T15:04:29;17.10;99.90
24478;DHT22;17860;50.846;5.714;2024-03-29T15:06:56;17.00;99.90
24478;DHT22;17860;50.846;5.714;2024-03-29T15:09:24;16.70;99.90
24478;DHT22;17860;50.846;5.714;2024-03-29T15:11:51;16.60;99.90
24478;DHT22;17860;50.846;5.714;2024-03-29T15:14:21;16.70;99.90
24478;DHT22;17860;50.846;5.714;2024-03-29T15:16:49;16.70;99.90
24478;DHT22;17860;50.846;5.714;2024-03-29T15:19:16;16.50;99.90
24478;DHT22;17860;50.846;5.714;2024-03-29T15:21:44;16.20;99.90
24478;DHT22;17860;50.846;5.714;2024-03-29T15:24:11;16.00;99.90
24478;DHT22;17860;50.846;5.714;2024-03-29T15:26:38;15.90;99.90
24478;DHT22;17860;50.846;5.714;2024-03-29T15:29:06;15.70;99.90
24478;DHT22;17860;50.846;5.714;2024-03-29T15:31:37;15.60;99.90
24478;DHT22;17860;50.846;5.714;2024-03-29T15:34:06;15.50;99.90
24478;DHT22;17860;50.846;5.714;2024-03-29T15:36:34;15.50;99.90
24478;DHT22;17860;50.846;5.714;2024-03-29T15:39:02;15.50;99.90
24478;DHT22;17860;50.846;5.714;2024-03-29T15:41:35;15.40;99.90
24478;DHT22;17860;50.846;5.714;2024-03-29T15:44:02;15.40;99.90
24478;DHT22;17860;50.846;5.714;2024-03-29T15:46:30;15.30;99.90
24478;DHT22;17860;50.846;5.714;2024-03-29T15:48:57;15.20;99.90
24478;DHT22;17860;50.846;5.714;2024-03-29T15:51:26;15.20;99.90
24478;DHT22;17860;50.846;5.714;2024-03-29T15:53:54;15.20;99.90
24478;DHT22;17860;50.846;5.714;2024-03-29T15:56:25;15.20;99.90
24478;DHT22;17860;50.846;5.714;2024-03-29T15:58:53;15.30;99.90
24478;DHT22;17860;50.846;5.714;2024-03-29T16:01:22;15.80;99.90
24478;DHT22;17860;50.846;5.714;2024-03-29T16:03:50;16.50;99.90
24478;DHT22;17860;50.846;5.714;2024-03-29T16:06:17;16.80;99.90
24478;DHT22;17860;50.846;5.714;2024-03-29T16:08:46;16.70;99.90
24478;DHT22;17860;50.846;5.714;2024-03-29T16:11:13;16.50;99.90
24478;DHT22;17860;50.846;5.714;2024-03-29T16:13:41;16.50;99.90
24478;DHT22;17860;50.846;5.714;2024-03-29T16:16:10;16.20;99.90
24478;DHT22;17860;50.846;5.714;2024-03-29T16:18:38;16.00;99.90
24478;DHT22;17860;50.846;5.714;2024-03-29T16:21:04;15.80;99.90
24478;DHT22;17860;50.846;5.714;2024-03-29T16:23:31;15.60;99.90
24478;DHT22;17860;50.846;5.714;2024-03-29T16:26:01;15.60;99.90
24478;DHT22;17860;50.846;5.714;2024-03-29T16:28:28;15.60;99.90
24478;DHT22;17860;50.846;5.714;2024-03-29T16:30:54;15.60;99.90
24478;DHT22;17860;50.846;5.714;2024-03-29T16:33:22;15.60;99.90
24478;DHT22;17860;50.846;5.714;2024-03-29T16:35:48;15.60;99.90
24478;DHT22;17860;50.846;5.714;2024-03-29T16:38:15;15.60;99.90
24478;DHT22;17860;50.846;5.714;2024-03-29T16:40:41;15.50;99.90
24478;DHT22;17860;50.846;5.714;2024-03-29T16:43:10;15.50;99.90
24478;DHT22;17860;50.846;5.714;2024-03-29T16:45:39;15.30;99.90
24478;DHT22;17860;50.846;5.714;2024-03-29T16:48:07;15.20;99.90
24478;DHT22;17860;50.846;5.714;2024-03-29T16:50:33;15.00;99.90
24478;DHT22;17860;50.846;5.714;2024-03-29T16:53:02;14.90;99.90
24478;DHT22;17860;50.846;5.714;2024-03-29T16:55:29;14.80;99.90
24478;DHT22;17860;50.846;5.714;2024-03-29T16:57:58;14.80;99.90
24478;DHT22;17860;50.846;5.714;2024-03-29T17:00:26;14.80;99.90
24478;DHT22;17860;50.846;5.714;2024-03-29T17:02:54;14.80;99.90
24478;DHT22;17860;50.846;5.714;2024-03-29T17:05:21;14.80;99.90
24478;DHT22;17860;50.846;5.714;2024-03-29T17:07:48;14.70;99.90
24478;DHT22;17860;50.846;5.714;2024-03-29T17:10:15;14.60;99.90
24478;DHT22;17860;50.846;5.714;2024-03-29T17:12:41;14.40;99.90
24478;DHT22;17860;50.846;5.714;2024-03-29T17:15:08;14.30;99.90
24478;DHT22;17860;50.846;5.714;2024-03-29T17:17:38;14.20;99.90
24478;DHT22;17860;50.846;5.714;2024-03-29T17:20:06;14.20;99.90
24478;DHT22;17860;50.846;5.714;2024-03-29T17:22:32;14.10;99.90
24478;DHT22;17860;50.846;5.714;2024-03-29T17:24:59;14.00;99.90
24478;DHT22;17860;50.846;5.714;2024-03-29T17:27:34;14.00;99.90
24478;DHT22;17860;50.846;5.714;2024-03-29T17:30:02;13.90;99.90
24478;DHT22;17860;50.846;5.714;2024-03-29T17:32:28;13.80;99.90
24478;DHT22;17860;50.846;5.714;2024-03-29T17:34:57;13.70;99.90
24478;DHT22;17860;50.846;5.714;2024-03-29T17:37:23;13.70;99.90
24478;DHT22;17860;50.846;5.714;2024-03-29T17:39:50;13.60;99.90
24478;DHT22;17860;50.846;5.714;2024-03-29T17:42:16;13.60;99.90
24478;DHT22;17860;50.846;5.714;2024-03-29T17:44:44;13.60;99.90
24478;DHT22;17860;50.846;5.714;2024-03-29T17:47:10;13.60;99.90
24478;DHT22;17860;50.846;5.714;2024-03-29T17:49:38;13.50;99.90
24478;DHT22;17860;50.846;5.714;2024-03-29T17:52:06;13.50;99.90
24478;DHT22;17860;50.846;5.714;2024-03-29T17:54:33;13.50;99.90
24478;DHT22;17860;50.846;5.714;2024-03-29T17:56:59;13.40;99.90
24478;DHT22;17860;50.846;5.714;2024-03-29T17:59:27;13.40;99.90
24478;DHT22;17860;50.846;5.714;2024-03-29T18:01:53;13.30;99.90
24478;DHT22;17860;50.846;5.714;2024-03-29T18:04:20;13.20;99.90
24478;DHT22;17860;50.846;5.714;2024-03-29T18:06:46;13.20;99.90
24478;DHT22;17860;50.846;5.714;2024-03-29T18:09:15;13.20;99.90
24478;DHT22;17860;50.846;5.714;2024-03-29T18:11:42;13.20;99.90
24478;DHT22;17860;50.846;5.714;2024-03-29T18:14:09;13.20;99.90
24478;DHT22;17860;50.846;5.714;2024-03-29T18:16:36;13.10;99.90
24478;DHT22;17860;50.846;5.714;2024-03-29T18:19:03;13.10;99.90
24478;DHT22;17860;50.846;5.714;2024-03-29T18:21:30;13.00;99.90
24478;DHT22;17860;50.846;5.714;2024-03-29T18:23:57;13.00;99.90
24478;DHT22;17860;50.846;5.714;2024-03-29T18:26:24;12.90;99.90
24478;DHT22;17860;50.846;5.714;2024-03-29T18:28:52;12.90;99.90
24478;DHT22;17860;50.846;5.714;2024-03-29T18:31:18;12.90;99.90
24478;DHT22;17860;50.846;5.714;2024-03-29T18:33:45;12.80;99.90
24478;DHT22;17860;50.846;5.714;2024-03-29T18:36:11;12.80;99.90
24478;DHT22;17860;50.846;5.714;2024-03-29T18:38:38;12.70;99.90
24478;DHT22;17860;50.846;5.714;2024-03-29T18:41:06;12.70;99.90
24478;DHT22;17860;50.846;5.714;2024-03-29T18:43:35;12.70;99.90
24478;DHT22;17860;50.846;5.714;2024-03-29T18:46:05;12.60;99.90
24478;DHT22;17860;50.846;5.714;2024-03-29T18:48:32;12.60;99.90
24478;DHT22;17860;50.846;5.714;2024-03-29T18:50:59;12.50;99.90
24478;DHT22;17860;50.846;5.714;2024-03-29T18:53:26;12.50;99.90
24478;DHT22;17860;50.846;5.714;2024-03-29T18:55:57;12.40;99.90
24478;DHT22;17860;50.846;5.714;2024-03-29T18:58:25;12.30;99.90
24478;DHT22;17860;50.846;5.714;2024-03-29T19:00:53;12.20;99.90
24478;DHT22;17860;50.846;5.714;2024-03-29T19:03:22;12.20;99.90
24478;DHT22;17860;50.846;5.714;2024-03-29T19:05:48;12.10;99.90
24478;DHT22;17860;50.846;5.714;2024-03-29T19:08:16;12.00;99.90
24478;DHT22;17860;50.846;5.714;2024-03-29T19:10:42;12.00;99.90
24478;DHT22;17860;50.846;5.714;2024-03-29T19:13:10;11.90;99.90
24478;DHT22;17860;50.846;5.714;2024-03-29T19:15:36;11.70;99.90
24478;DHT22;17860;50.846;5.714;2024-03-29T19:18:05;11.50;99.90
24478;DHT22;17860;50.846;5.714;2024-03-29T19:20:32;11.50;99.90
24478;DHT22;17860;50.846;5.714;2024-03-29T19:22:59;11.50;99.90
24478;DHT22;17860;50.846;5.714;2024-03-29T19:25:25;11.40;99.90
24478;DHT22;17860;50.846;5.714;2024-03-29T19:27:52;11.20;99.90
24478;DHT22;17860;50.846;5.714;2024-03-29T19:30:19;11.20;99.90
24478;DHT22;17860;50.846;5.714;2024-03-29T19:32:55;11.20;99.90
24478;DHT22;17860;50.846;5.714;2024-03-29T19:35:23;11.10;99.90
24478;DHT22;17860;50.846;5.714;2024-03-29T19:37:51;11.00;99.90
24478;DHT22;17860;50.846;5.714;2024-03-29T19:40:19;11.00;99.90
24478;DHT22;17860;50.846;5.714;2024-03-29T19:42:47;10.90;99.90
24478;DHT22;17860;50.846;5.714;2024-03-29T19:45:13;10.90;99.90
24478;DHT22;17860;50.846;5.714;2024-03-29T19:47:40;10.80;99.90
24478;DHT22;17860;50.846;5.714;2024-03-29T19:50:07;10.70;99.90
24478;DHT22;17860;50.846;5.714;2024-03-29T19:52:36;10.80;99.90
24478;DHT22;17860;50.846;5.714;2024-03-29T19:55:02;10.70;99.90
24478;DHT22;17860;50.846;5.714;2024-03-29T19:57:30;10.70;99.90
24478;DHT22;17860;50.846;5.714;2024-03-29T19:59:56;10.70;99.90
24478;DHT22;17860;50.846;5.714;2024-03-29T20:02:23;10.70;99.90
24478;DHT22;17860;50.846;5.714;2024-03-29T20:04:49;10.70;99.90
24478;DHT22;17860;50.846;5.714;2024-03-29T20:07:17;10.70;99.90
24478;DHT22;17860;50.846;5.714;2024-03-29T20:09:44;10.80;99.90
24478;DHT22;17860;50.846;5.714;2024-03-29T20:12:12;10.80;99.90
24478;DHT22;17860;50.846;5.714;2024-03-29T20:14:38;10.70;99.90
24478;DHT22;17860;50.846;5.714;2024-03-29T20:17:05;10.70;99.90
24478;DHT22;17860;50.846;5.714;2024-03-29T20:19:32;10.70;99.90
24478;DHT22;17860;50.846;5.714;2024-03-29T20:21:59;10.70;99.90
24478;DHT22;17860;50.846;5.714;2024-03-29T20:24:25;10.70;99.90
24478;DHT22;17860;50.846;5.714;2024-03-29T20:26:58;10.70;99.90
24478;DHT22;17860;50.846;5.714;2024-03-29T20:29:24;10.80;99.90
24478;DHT22;17860;50.846;5.714;2024-03-29T20:31:52;10.70;99.90
24478;DHT22;17860;50.846;5.714;2024-03-29T20:34:19;10.70;99.90
24478;DHT22;17860;50.846;5.714;2024-03-29T20:36:46;10.70;99.90
24478;DHT22;17860;50.846;5.714;2024-03-29T20:39:14;10.70;99.90
24478;DHT22;17860;50.846;5.714;2024-03-29T20:41:43;10.70;99.90
24478;DHT22;17860;50.846;5.714;2024-03-29T20:44:11;10.70;99.90
24478;DHT22;17860;50.846;5.714;2024-03-29T20:46:38;10.70;99.90
24478;DHT22;17860;50.846;5.714;2024-03-29T20:49:04;10.70;99.90
24478;DHT22;17860;50.846;5.714;2024-03-29T20:51:31;10.60;99.90
24478;DHT22;17860;50.846;5.714;2024-03-29T20:53:58;10.60;99.90
24478;DHT22;17860;50.846;5.714;2024-03-29T20:56:25;10.60;99.90
24478;DHT22;17860;50.846;5.714;2024-03-29T20:58:52;10.60;99.90
24478;DHT22;17860;50.846;5.714;2024-03-29T21:01:20;10.70;99.90
24478;DHT22;17860;50.846;5.714;2024-03-29T21:04:01;10.70;99.90
24478;DHT22;17860;50.846;5.714;2024-03-29T21:06:46;10.70;99.90
24478;DHT22;17860;50.846;5.714;2024-03-29T21:09:13;10.70;99.90
24478;DHT22;17860;50.846;5.714;2024-03-29T21:11:40;10.60;99.90
24478;DHT22;17860;50.846;5.714;2024-03-29T21:14:08;10.60;99.90
24478;DHT22;17860;50.846;5.714;2024-03-29T21:16:36;10.60;99.90
24478;DHT22;17860;50.846;5.714;2024-03-29T21:19:04;10.60;99.90
24478;DHT22;17860;50.846;5.714;2024-03-29T21:21:32;10.50;99.90
24478;DHT22;17860;50.846;5.714;2024-03-29T21:24:01;10.40;99.90
24478;DHT22;17860;50.846;5.714;2024-03-29T21:26:29;10.30;99.90
24478;DHT22;17860;50.846;5.714;2024-03-29T21:28:57;10.20;99.90
24478;DHT22;17860;50.846;5.714;2024-03-29T21:31:23;10.20;99.90
24478;DHT22;17860;50.846;5.714;2024-03-29T21:33:52;10.10;99.90
24478;DHT22;17860;50.846;5.714;2024-03-29T21:36:21;10.00;99.90
24478;DHT22;17860;50.846;5.714;2024-03-29T21:38:48;9.90;99.90
24478;DHT22;17860;50.846;5.714;2024-03-29T21:41:14;9.90;99.90
24478;DHT22;17860;50.846;5.714;2024-03-29T21:43:43;9.80;99.90
24478;DHT22;17860;50.846;5.714;2024-03-29T21:46:10;9.80;99.90
24478;DHT22;17860;50.846;5.714;2024-03-29T21:48:37;9.80;99.90
24478;DHT22;17860;50.846;5.714;2024-03-29T21:51:05;9.80;99.90
24478;DHT22;17860;50.846;5.714;2024-03-29T21:53:32;9.80;99.90
24478;DHT22;17860;50.846;5.714;2024-03-29T21:55:58;9.80;99.90
24478;DHT22;17860;50.846;5.714;2024-03-29T21:58:25;9.80;99.90
24478;DHT22;17860;50.846;5.714;2024-03-29T22:00:51;9.70;99.90
24478;DHT22;17860;50.846;5.714;2024-03-29T22:03:19;9.70;99.90
24478;DHT22;17860;50.846;5.714;2024-03-29T22:05:45;9.70;99.90
24478;DHT22;17860;50.846;5.714;2024-03-29T22:08:14;9.70;99.90
24478;DHT22;17860;50.846;5.714;2024-03-29T22:10:43;9.70;99.90
24478;DHT22;17860;50.846;5.714;2024-03-29T22:13:10;9.70;99.90
24478;DHT22;17860;50.846;5.714;2024-03-29T22:15:37;9.70;99.90
24478;DHT22;17860;50.846;5.714;2024-03-29T22:18:04;9.70;99.90
24478;DHT22;17860;50.846;5.714;2024-03-29T22:20:30;9.70;99.90
24478;DHT22;17860;50.846;5.714;2024-03-29T22:22:58;9.70;99.90
24478;DHT22;17860;50.846;5.714;2024-03-29T22:25:26;9.70;99.90
24478;DHT22;17860;50.846;5.714;2024-03-29T22:27:53;9.70;99.90
24478;DHT22;17860;50.846;5.714;2024-03-29T22:30:19;9.60;99.90
24478;DHT22;17860;50.846;5.714;2024-03-29T22:32:46;9.60;99.90
24478;DHT22;17860;50.846;5.714;2024-03-29T22:35:13;9.60;99.90
24478;DHT22;17860;50.846;5.714;2024-03-29T22:37:40;9.60;99.90
24478;DHT22;17860;50.846;5.714;2024-03-29T22:40:07;9.50;99.90
24478;DHT22;17860;50.846;5.714;2024-03-29T22:42:36;9.50;99.90
24478;DHT22;17860;50.846;5.714;2024-03-29T22:45:02;9.50;99.90
24478;DHT22;17860;50.846;5.714;2024-03-29T22:47:30;9.50;99.90
24478;DHT22;17860;50.846;5.714;2024-03-29T22:49:56;9.40;99.90
24478;DHT22;17860;50.846;5.714;2024-03-29T22:52:23;9.40;99.90
24478;DHT22;17860;50.846;5.714;2024-03-29T22:54:49;9.40;99.90
24478;DHT22;17860;50.846;5.714;2024-03-29T22:57:17;9.40;99.90
24478;DHT22;17860;50.846;5.714;2024-03-29T22:59:44;9.40;99.90
24478;DHT22;17860;50.846;5.714;2024-03-29T23:02:12;9.40;99.90
24478;DHT22;17860;50.846;5.714;2024-03-29T23:04:38;9.40;99.90
24478;DHT22;17860;50.846;5.714;2024-03-29T23:07:05;9.40;99.90
24478;DHT22;17860;50.846;5.714;2024-03-29T23:09:33;9.40;99.90
24478;DHT22;17860;50.846;5.714;2024-03-29T23:12:01;9.50;99.90
24478;DHT22;17860;50.846;5.714;2024-03-29T23:14:27;9.50;99.90
24478;DHT22;17860;50.846;5.714;2024-03-29T23:16:55;9.50;99.90
24478;DHT22;17860;50.846;5.714;2024-03-29T23:19:22;9.50;99.90
24478;DHT22;17860;50.846;5.714;2024-03-29T23:21:49;9.50;99.90
24478;DHT22;17860;50.846;5.714;2024-03-29T23:24:15;9.50;99.90
24478;DHT22;17860;50.846;5.714;2024-03-29T23:26:42;9.40;99.90
24478;DHT22;17860;50.846;5.714;2024-03-29T23:29:08;9.40;99.90
24478;DHT22;17860;50.846;5.714;2024-03-29T23:31:35;9.40;99.90
24478;DHT22;17860;50.846;5.714;2024-03-29T23:34:03;9.40;99.90
24478;DHT22;17860;50.846;5.714;2024-03-29T23:36:30;9.30;99.90
24478;DHT22;17860;50.846;5.714;2024-03-29T23:38:56;9.30;99.90
24478;DHT22;17860;50.846;5.714;2024-03-29T23:41:24;9.30;99.90
24478;DHT22;17860;50.846;5.714;2024-03-29T23:43:50;9.20;99.90
24478;DHT22;17860;50.846;5.714;2024-03-29T23:46:17;9.20;99.90
24478;DHT22;17860;50.846;5.714;2024-03-29T23:48:43;9.20;99.90
24478;DHT22;17860;50.846;5.714;2024-03-29T23:51:12;9.20;99.90
24478;DHT22;17860;50.846;5.714;2024-03-29T23:53:38;9.20;99.90
24478;DHT22;17860;50.846;5.714;2024-03-29T23:56:05;9.20;99.90
24478;DHT22;17860;50.846;5.714;2024-03-29T23:58:32;9.20;99.90
